KMKT/MKT METAR and TAF weather

Enter ICAO airport designator
Station Type Date Time Source
KMKT METAR 2021/05/13 04:56 UTC NOAA

KMKT 130456Z AUTO 21007KT 10SM CLR 13/M05 A3035 RMK AO2 SLP282 T01281050


Station Type Date Time Source
KMKT Decoded METAR 2021/05/13 04:56 UTC NOAA

Mankato, Mankato Regional Airport, MN, United States (KMKT) 44-13N 093-55W
May 13, 2021 - 12:56 AM EDT / 2021.05.13 0456 UTC
Wind: from the SSW (210 degrees) at 8 MPH (7 KT):0
Visibility: 10 mile(s):0
Sky conditions: clear
Temperature: 55.0 F (12.8 C)
Dew Point: 23.0 F (-5.0 C)
Relative Humidity: 28%
Pressure (altimeter): 30.35 in. Hg (1027 hPa)
ob: KMKT 130456Z AUTO 21007KT 10SM CLR 13/M05 A3035 RMK AO2 SLP282 T01281050
cycle: 5

Station Type Date Time Source
KMKT TAF 2021/05/13 06:21 UTC NOAA

TAF KMKT 130520Z 1306/1406 19005KT P6SM SKC
FM131600 19010KT P6SM SCT080
FM140100 16005KT P6SM BKN070

Example: see airport list